createdAt,value
2023-04-03T00:00:04.406Z,6.00
2023-04-03T00:02:36.932Z,6.00
2023-04-03T00:05:04.045Z,6.00
2023-04-03T00:07:32.366Z,6.00
2023-04-03T00:09:59.837Z,5.90
2023-04-03T00:12:26.786Z,5.90
2023-04-03T00:14:57.222Z,5.80
2023-04-03T00:17:24.167Z,5.80
2023-04-03T00:19:53.242Z,5.80
2023-04-03T00:22:20.715Z,5.90
2023-04-03T00:24:47.727Z,5.90
2023-04-03T00:27:16.773Z,6.00
2023-04-03T00:29:45.930Z,5.90
2023-04-03T00:32:14.317Z,5.80
2023-04-03T00:34:43.831Z,5.80
2023-04-03T00:37:11.275Z,5.80
2023-04-03T00:39:38.135Z,5.80
2023-04-03T00:42:06.400Z,5.80
2023-04-03T00:44:37.385Z,5.80
2023-04-03T00:47:08.475Z,5.80
2023-04-03T00:49:37.214Z,5.80
2023-04-03T00:52:05.009Z,5.70
2023-04-03T00:54:32.009Z,5.70
2023-04-03T00:56:59.385Z,5.70
2023-04-03T00:59:31.535Z,5.70
2023-04-03T01:02:00.883Z,5.80
2023-04-03T01:04:34.523Z,5.50
2023-04-03T01:07:16.567Z,5.60
2023-04-03T01:09:47.786Z,5.50
2023-04-03T01:12:23.541Z,5.50
2023-04-03T01:14:53.684Z,5.60
2023-04-03T01:17:37.119Z,5.50
2023-04-03T01:20:10.179Z,5.40
2023-04-03T01:22:49.864Z,5.30
2023-04-03T01:25:18.230Z,5.30
2023-04-03T01:27:45.869Z,5.20
2023-04-03T01:30:17.743Z,5.30
2023-04-03T01:32:44.784Z,5.20
2023-04-03T01:35:14.268Z,5.20
2023-04-03T01:37:43.219Z,5.10
2023-04-03T01:40:10.768Z,5.20
2023-04-03T01:42:38.821Z,5.20
2023-04-03T01:45:07.289Z,5.20
2023-04-03T01:47:34.609Z,5.20
2023-04-03T01:50:01.888Z,5.10
2023-04-03T01:52:33.103Z,5.20
2023-04-03T01:55:03.163Z,5.10
2023-04-03T01:57:30.871Z,5.10
2023-04-03T01:59:57.897Z,5.10
2023-04-03T02:02:26.460Z,5.10
2023-04-03T02:04:55.823Z,5.10
2023-04-03T02:07:22.802Z,5.00
2023-04-03T02:09:54.118Z,5.00
2023-04-03T02:12:23.388Z,4.90
2023-04-03T02:14:51.698Z,4.90
2023-04-03T02:17:18.609Z,4.90
2023-04-03T02:19:47.940Z,5.00
2023-04-03T02:22:15.001Z,4.90
2023-04-03T02:24:42.377Z,4.90
2023-04-03T02:27:09.474Z,4.90
2023-04-03T02:29:36.348Z,4.70
2023-04-03T02:32:03.787Z,4.80
2023-04-03T02:34:32.071Z,4.70
2023-04-03T02:37:01.956Z,4.70
2023-04-03T02:39:34.254Z,4.70
2023-04-03T02:42:01.807Z,4.70
2023-04-03T02:44:29.596Z,4.60
2023-04-03T02:46:56.471Z,4.60
2023-04-03T02:49:25.111Z,4.70
2023-04-03T02:51:52.257Z,4.50
2023-04-03T02:54:19.178Z,4.50
2023-04-03T02:56:51.904Z,4.60
2023-04-03T02:59:19.119Z,4.60
2023-04-03T03:01:46.534Z,4.60
2023-04-03T03:04:13.514Z,4.50
2023-04-03T03:06:42.826Z,4.40
2023-04-03T03:09:11.083Z,4.50
2023-04-03T03:11:39.455Z,4.50
2023-04-03T03:14:06.629Z,4.40
2023-04-03T03:16:35.197Z,4.40
2023-04-03T03:19:07.817Z,4.40
2023-04-03T03:21:35.170Z,4.40
2023-04-03T03:24:02.603Z,4.40
2023-04-03T03:26:29.877Z,4.40
2023-04-03T03:28:58.050Z,4.30
2023-04-03T03:31:25.372Z,4.30
2023-04-03T03:33:52.696Z,4.40
2023-04-03T03:36:19.588Z,4.50
2023-04-03T03:38:46.943Z,4.30
2023-04-03T03:41:14.870Z,4.40
2023-04-03T03:43:45.300Z,4.30
2023-04-03T03:46:14.193Z,4.40
2023-04-03T03:48:44.442Z,4.40
2023-04-03T03:51:12.701Z,4.30
2023-04-03T03:53:40.246Z,4.30
2023-04-03T03:56:10.804Z,4.30
2023-04-03T03:58:39.898Z,4.30
2023-04-03T04:01:07.971Z,4.30
2023-04-03T04:03:41.004Z,4.20
2023-04-03T04:06:10.023Z,4.20
2023-04-03T04:08:37.043Z,4.10
2023-04-03T04:11:06.338Z,4.10
2023-04-03T04:13:33.405Z,4.20
2023-04-03T04:16:03.698Z,4.20
2023-04-03T04:18:32.077Z,4.20
2023-04-03T04:20:58.958Z,4.20
2023-04-03T04:23:26.254Z,4.20
2023-04-03T04:25:56.139Z,4.10
2023-04-03T04:28:24.681Z,4.00
2023-04-03T04:30:54.525Z,4.00
2023-04-03T04:33:40.075Z,4.00
2023-04-03T04:36:16.170Z,4.10
2023-04-03T04:45:04.326Z,4.20
2023-04-03T04:57:44.908Z,4.00
2023-04-03T05:03:54.656Z,4.00
2023-04-03T05:06:31.656Z,4.10
2023-04-03T05:12:43.021Z,4.00
2023-04-03T05:18:00.740Z,4.00
2023-04-03T05:20:38.558Z,4.00
2023-04-03T05:30:07.597Z,4.00
2023-04-03T05:32:38.110Z,3.90
2023-04-03T05:35:21.024Z,3.90
2023-04-03T05:37:52.340Z,4.00
2023-04-03T05:40:19.707Z,3.90
2023-04-03T05:43:00.829Z,3.90
2023-04-03T05:45:37.131Z,3.90
2023-04-03T05:48:14.754Z,4.00
2023-04-03T05:51:18.013Z,4.00
2023-04-03T05:56:44.463Z,4.00
2023-04-03T05:59:12.055Z,4.10
2023-04-03T06:01:39.643Z,4.10
2023-04-03T06:04:09.999Z,4.20
2023-04-03T06:07:00.538Z,4.30
2023-04-03T06:09:30.230Z,4.40
2023-04-03T06:11:59.637Z,4.40
2023-04-03T06:14:28.067Z,4.50
2023-04-03T06:16:55.839Z,4.40
2023-04-03T06:19:22.807Z,4.30
2023-04-03T06:21:53.394Z,4.30
2023-04-03T06:24:22.635Z,4.30
2023-04-03T06:26:54.691Z,4.50
2023-04-03T06:29:21.646Z,4.50
2023-04-03T06:31:49.271Z,4.50
2023-04-03T06:34:16.929Z,4.60
2023-04-03T06:36:44.383Z,4.60
2023-04-03T06:39:23.054Z,4.70
2023-04-03T06:41:51.888Z,4.80
2023-04-03T06:44:28.584Z,4.80
2023-04-03T06:46:55.667Z,4.90
2023-04-03T06:49:22.871Z,5.00
2023-04-03T06:51:49.859Z,5.00
2023-04-03T06:54:17.089Z,5.10
2023-04-03T06:56:44.341Z,5.20
2023-04-03T06:59:13.960Z,5.20
2023-04-03T07:01:41.989Z,5.10
2023-04-03T07:04:09.376Z,5.10
2023-04-03T07:06:36.558Z,5.20
2023-04-03T07:09:04.177Z,5.30
2023-04-03T07:11:32.309Z,5.40
2023-04-03T07:14:00.125Z,5.40
2023-04-03T07:16:29.301Z,5.40
2023-04-03T07:18:58.169Z,5.50
2023-04-03T07:21:25.606Z,5.60
2023-04-03T07:23:52.448Z,5.50
2023-04-03T07:26:19.450Z,5.40
2023-04-03T07:28:48.492Z,5.50
2023-04-03T07:31:16.878Z,5.70
2023-04-03T07:33:44.466Z,5.90
2023-04-03T07:36:15.320Z,6.10
2023-04-03T07:38:42.378Z,6.20
2023-04-03T07:41:16.874Z,6.30
2023-04-03T07:43:43.744Z,6.30
2023-04-03T07:46:11.714Z,6.40
2023-04-03T07:48:38.666Z,6.40
2023-04-03T07:51:11.738Z,6.40
2023-04-03T07:53:38.683Z,6.40
2023-04-03T07:56:12.668Z,6.20
2023-04-03T07:59:52.744Z,6.30
2023-04-03T08:02:19.610Z,6.40
2023-04-03T08:04:46.658Z,6.40
2023-04-03T08:07:13.852Z,6.30
2023-04-03T08:09:43.724Z,6.30
2023-04-03T08:12:47.844Z,6.40
2023-04-03T08:15:31.160Z,6.60
2023-04-03T08:18:06.559Z,6.50
2023-04-03T08:20:49.509Z,6.60
2023-04-03T08:23:22.826Z,6.70
2023-04-03T08:26:05.726Z,6.80
2023-04-03T08:28:53.046Z,6.90
2023-04-03T08:31:21.237Z,6.90
2023-04-03T08:33:48.843Z,7.00
2023-04-03T08:36:26.187Z,7.10
2023-04-03T08:38:54.527Z,7.10
2023-04-03T08:41:36.085Z,7.20
2023-04-03T08:44:07.696Z,7.30
2023-04-03T08:46:47.963Z,7.20
2023-04-03T08:49:52.558Z,7.20
2023-04-03T08:52:35.791Z,7.30
2023-04-03T08:55:33.366Z,7.30
2023-04-03T08:58:23.571Z,7.60
2023-04-03T09:01:05.001Z,7.80
2023-04-03T09:03:34.522Z,7.80
2023-04-03T09:06:20.868Z,7.90
2023-04-03T09:08:56.688Z,8.00
2023-04-03T09:12:06.201Z,7.90
2023-04-03T09:15:37.865Z,7.90
2023-04-03T09:18:28.029Z,7.90
2023-04-03T09:21:22.108Z,8.00
2023-04-03T09:23:55.061Z,8.00
2023-04-03T09:26:52.531Z,8.00
2023-04-03T09:29:25.041Z,8.00
2023-04-03T09:32:02.325Z,8.00
2023-04-03T09:34:32.999Z,8.20
2023-04-03T09:37:11.525Z,8.20
2023-04-03T09:39:58.696Z,8.20
2023-04-03T09:43:08.468Z,8.40
2023-04-03T09:45:38.408Z,8.30
2023-04-03T09:48:16.764Z,8.30
2023-04-03T09:51:02.930Z,8.50
2023-04-03T09:53:44.218Z,8.50
2023-04-03T09:56:27.722Z,8.50
2023-04-03T09:59:12.639Z,8.60
2023-04-03T10:02:02.315Z,8.80
2023-04-03T10:04:40.801Z,8.80
2023-04-03T10:07:37.673Z,8.80
2023-04-03T10:10:21.042Z,8.80
2023-04-03T10:12:48.305Z,8.80
2023-04-03T10:15:19.644Z,8.80
2023-04-03T10:18:17.883Z,8.80
2023-04-03T10:20:54.452Z,8.90
2023-04-03T10:23:35.498Z,9.00
2023-04-03T10:26:56.594Z,9.10
2023-04-03T10:33:14.184Z,9.20
2023-04-03T10:36:27.444Z,9.40
2023-04-03T10:39:19.461Z,9.30
2023-04-03T10:42:05.562Z,9.40
2023-04-03T10:45:16.190Z,9.40
2023-04-03T10:48:15.732Z,9.40
2023-04-03T10:51:22.216Z,9.30
2023-04-03T10:54:08.366Z,9.40
2023-04-03T10:57:08.533Z,9.50
2023-04-03T10:59:46.926Z,9.70
2023-04-03T11:02:34.360Z,10.00
2023-04-03T11:05:21.441Z,10.10
2023-04-03T11:07:58.652Z,10.00
2023-04-03T11:10:48.277Z,10.20
2023-04-03T11:13:43.672Z,10.60
2023-04-03T11:16:17.138Z,11.40
2023-04-03T11:19:03.192Z,11.90
2023-04-03T11:21:36.801Z,12.30
2023-04-03T11:24:10.598Z,12.40
2023-04-03T11:26:42.493Z,12.90
2023-04-03T11:29:34.146Z,13.20
2023-04-03T11:32:27.487Z,13.60
2023-04-03T11:35:02.556Z,14.10
2023-04-03T11:37:40.944Z,13.90
2023-04-03T11:40:14.097Z,13.70
2023-04-03T11:42:43.683Z,13.90
2023-04-03T11:45:23.361Z,14.50
2023-04-03T11:47:52.904Z,15.10
2023-04-03T11:50:35.447Z,15.20
2023-04-03T11:53:04.121Z,15.40
2023-04-03T11:55:34.130Z,15.30
2023-04-03T11:58:04.264Z,15.40
2023-04-03T12:00:54.098Z,15.40
2023-04-03T12:03:30.526Z,16.00
2023-04-03T12:06:08.298Z,16.30
2023-04-03T12:08:41.388Z,16.30
2023-04-03T12:11:14.374Z,16.40
2023-04-03T12:14:01.805Z,16.40
2023-04-03T12:16:40.911Z,16.10
2023-04-03T12:22:12.130Z,15.70
2023-04-03T12:24:41.537Z,15.60
2023-04-03T12:27:35.609Z,15.60
2023-04-03T12:30:14.772Z,15.60
2023-04-03T12:33:09.612Z,16.10
2023-04-03T12:36:06.772Z,16.50
2023-04-03T12:38:41.006Z,15.90
2023-04-03T12:41:16.813Z,16.00
2023-04-03T12:44:14.172Z,16.00
2023-04-03T12:46:50.975Z,16.40
2023-04-03T12:49:38.011Z,15.70
2023-04-03T12:52:34.096Z,15.90
2023-04-03T12:55:05.034Z,15.80
2023-04-03T12:57:33.802Z,16.30
2023-04-03T13:00:34.307Z,16.70
2023-04-03T13:03:07.334Z,17.20
2023-04-03T13:05:37.207Z,17.20
2023-04-03T13:08:09.692Z,17.00
2023-04-03T13:10:53.611Z,16.30
2023-04-03T13:13:24.363Z,15.20
2023-04-03T13:15:55.905Z,14.30
2023-04-03T13:18:26.049Z,15.20
2023-04-03T13:21:05.882Z,15.80
2023-04-03T13:23:35.605Z,16.30
2023-04-03T13:26:05.219Z,16.50
2023-04-03T13:28:34.359Z,16.40
2023-04-03T13:31:15.038Z,16.40
2023-04-03T13:33:59.554Z,16.30
2023-04-03T13:36:40.437Z,16.10
2023-04-03T13:39:27.137Z,16.30
2023-04-03T13:42:03.767Z,15.90
2023-04-03T13:44:36.220Z,16.10
2023-04-03T13:47:12.399Z,16.30
2023-04-03T13:49:47.194Z,16.20
2023-04-03T13:52:23.291Z,16.20
2023-04-03T13:54:57.475Z,16.40
2023-04-03T13:57:26.022Z,16.30
2023-04-03T13:59:53.503Z,15.80
2023-04-03T14:02:32.424Z,15.60
2023-04-03T14:05:02.828Z,14.80
2023-04-03T14:07:32.145Z,14.30
2023-04-03T14:10:02.156Z,13.30
2023-04-03T14:12:38.225Z,12.90
2023-04-03T14:15:39.693Z,13.00
2023-04-03T14:18:08.286Z,12.90
2023-04-03T14:20:35.540Z,12.70
2023-04-03T14:23:02.506Z,12.50
2023-04-03T14:25:29.731Z,12.20
2023-04-03T14:27:56.799Z,12.20
2023-04-03T14:30:25.875Z,12.20
2023-04-03T14:32:53.373Z,12.10
2023-04-03T14:35:22.059Z,12.00
2023-04-03T14:37:50.648Z,11.90
2023-04-03T14:40:21.832Z,11.90
2023-04-03T14:42:49.762Z,11.90
2023-04-03T14:45:19.339Z,11.80
2023-04-03T14:47:51.451Z,11.90
2023-04-03T14:50:26.020Z,11.90
2023-04-03T14:52:57.119Z,12.00
2023-04-03T14:55:26.108Z,11.90
2023-04-03T14:57:53.747Z,11.90
2023-04-03T15:00:22.924Z,11.80
2023-04-03T15:02:51.026Z,11.80
2023-04-03T15:05:18.128Z,11.70
2023-04-03T15:07:53.599Z,11.80
2023-04-03T15:10:26.858Z,11.70
2023-04-03T15:12:54.228Z,11.80
2023-04-03T15:15:23.353Z,11.80
2023-04-03T15:18:01.412Z,11.80
2023-04-03T15:20:32.457Z,11.80
2023-04-03T15:23:02.063Z,11.70
2023-04-03T15:25:29.932Z,11.70
2023-04-03T15:27:57.693Z,11.60
2023-04-03T15:30:29.043Z,11.40
2023-04-03T15:32:56.537Z,11.40
2023-04-03T15:35:25.927Z,11.40
2023-04-03T15:38:22.349Z,11.50
2023-04-03T15:40:52.377Z,11.40
2023-04-03T15:43:20.726Z,11.40
2023-04-03T15:45:48.378Z,11.40
2023-04-03T15:48:21.045Z,11.40
2023-04-03T15:50:48.131Z,11.40
2023-04-03T15:53:15.164Z,11.40
2023-04-03T15:55:43.730Z,11.40
2023-04-03T15:58:12.658Z,11.40
2023-04-03T16:00:40.556Z,11.40
2023-04-03T16:03:12.860Z,11.30
2023-04-03T16:05:41.216Z,11.30
2023-04-03T16:08:09.815Z,11.40
2023-04-03T16:10:37.961Z,11.30
2023-04-03T16:13:05.587Z,11.40
2023-04-03T16:15:34.051Z,11.40
2023-04-03T16:18:03.366Z,11.50
2023-04-03T16:20:30.989Z,11.20
2023-04-03T16:23:00.655Z,11.20
2023-04-03T16:25:28.088Z,11.30
2023-04-03T16:27:55.685Z,11.40
2023-04-03T16:30:22.878Z,11.30
2023-04-03T16:32:50.145Z,11.40
2023-04-03T16:35:17.161Z,11.20
2023-04-03T16:37:44.277Z,11.20
2023-04-03T16:40:13.204Z,11.20
2023-04-03T16:42:41.283Z,11.10
2023-04-03T16:45:09.192Z,11.10
2023-04-03T16:47:36.458Z,11.10
2023-04-03T16:50:04.047Z,11.00
2023-04-03T16:52:32.094Z,10.90
2023-04-03T16:55:00.186Z,10.80
2023-04-03T16:57:30.294Z,10.80
2023-04-03T16:59:57.352Z,10.90
2023-04-03T17:02:28.679Z,10.90
2023-04-03T17:04:55.763Z,10.80
2023-04-03T17:07:24.222Z,10.80
2023-04-03T17:09:55.416Z,10.80
2023-04-03T17:12:24.002Z,10.80
2023-04-03T17:14:52.076Z,10.70
2023-04-03T17:17:26.878Z,10.70
2023-04-03T17:21:09.053Z,10.70
2023-04-03T17:23:40.342Z,10.60
2023-04-03T17:26:07.335Z,10.60
2023-04-03T17:28:34.539Z,10.60
2023-04-03T17:31:02.862Z,10.60
2023-04-03T17:33:33.317Z,10.60
2023-04-03T17:36:03.745Z,10.60
2023-04-03T17:38:34.888Z,10.40
2023-04-03T17:41:05.951Z,10.40
2023-04-03T17:43:33.455Z,10.50
2023-04-03T17:46:03.830Z,10.40
2023-04-03T17:48:32.750Z,10.40
2023-04-03T17:51:00.207Z,10.30
2023-04-03T17:53:27.651Z,10.30
2023-04-03T17:55:54.589Z,10.20
2023-04-03T17:58:21.498Z,10.20
2023-04-03T18:00:48.301Z,10.10
2023-04-03T18:03:15.172Z,10.00
2023-04-03T18:05:42.309Z,10.00
2023-04-03T18:08:09.268Z,10.00
2023-04-03T18:10:37.420Z,10.00
2023-04-03T18:13:07.408Z,10.00
2023-04-03T18:15:34.532Z,9.90
2023-04-03T18:18:01.594Z,9.80
2023-04-03T18:20:28.573Z,9.80
2023-04-03T18:22:55.469Z,9.80
2023-04-03T18:25:22.430Z,9.70
2023-04-03T18:27:49.741Z,9.70
2023-04-03T18:30:17.758Z,9.70
2023-04-03T18:32:44.848Z,9.70
2023-04-03T18:35:12.951Z,9.50
2023-04-03T18:37:39.979Z,9.40
2023-04-03T18:40:07.650Z,9.40
2023-04-03T18:42:34.919Z,9.40
2023-04-03T18:45:05.871Z,9.40
2023-04-03T18:47:33.285Z,9.40
2023-04-03T18:50:00.356Z,9.20
2023-04-03T18:52:27.356Z,9.00
2023-04-03T18:55:24.343Z,9.10
2023-04-03T18:57:53.332Z,9.20
2023-04-03T19:00:23.370Z,9.00
2023-04-03T19:02:50.678Z,9.00
2023-04-03T19:05:19.796Z,9.00
2023-04-03T19:07:49.090Z,9.00
2023-04-03T19:10:20.098Z,9.00
2023-04-03T19:12:48.488Z,8.90
2023-04-03T19:15:18.231Z,8.80
2023-04-03T19:17:45.176Z,8.80
2023-04-03T19:20:20.526Z,8.80
2023-04-03T19:22:47.562Z,8.90
2023-04-03T19:25:15.634Z,8.70
2023-04-03T19:27:42.739Z,8.70
2023-04-03T19:30:12.291Z,8.70
2023-04-03T19:32:42.887Z,8.70
2023-04-03T19:35:19.034Z,8.60
2023-04-03T19:37:50.731Z,8.60
2023-04-03T19:40:18.947Z,8.60
2023-04-03T19:42:48.048Z,8.60
2023-04-03T19:45:24.781Z,8.60
2023-04-03T19:47:55.177Z,8.60
2023-04-03T19:50:25.481Z,8.50
2023-04-03T19:52:52.574Z,8.50
2023-04-03T19:55:19.590Z,8.50
2023-04-03T19:57:46.896Z,8.50
2023-04-03T20:00:14.541Z,8.40
2023-04-03T20:02:43.621Z,8.40
2023-04-03T20:05:11.601Z,8.30
2023-04-03T20:07:38.743Z,8.40
2023-04-03T20:10:07.001Z,8.40
2023-04-03T20:12:38.222Z,8.30
2023-04-03T20:15:08.181Z,8.20
2023-04-03T20:17:35.745Z,8.30
2023-04-03T20:20:04.937Z,8.10
2023-04-03T20:22:33.607Z,8.10
2023-04-03T20:25:06.426Z,7.90
2023-04-03T20:27:35.190Z,7.80
2023-04-03T20:30:05.867Z,7.80
2023-04-03T20:32:35.539Z,7.80
2023-04-03T20:35:04.600Z,7.80
2023-04-03T20:37:40.546Z,7.90
2023-04-03T20:40:09.298Z,7.90
2023-04-03T20:42:36.229Z,7.90
2023-04-03T20:45:03.291Z,7.80
2023-04-03T20:47:33.095Z,7.80
2023-04-03T20:50:05.066Z,7.60
2023-04-03T20:52:36.352Z,7.60
2023-04-03T20:55:04.625Z,7.60
2023-04-03T20:57:33.430Z,7.60
2023-04-03T21:00:04.710Z,7.60
2023-04-03T21:02:36.921Z,7.60
2023-04-03T21:05:04.611Z,7.60
2023-04-03T21:08:10.811Z,7.40
2023-04-03T21:11:16.117Z,7.40
2023-04-03T21:14:22.126Z,7.40
2023-04-03T21:16:49.060Z,7.40
2023-04-03T21:19:20.168Z,7.30
2023-04-03T21:21:47.359Z,7.20
2023-04-03T21:24:17.268Z,7.20
2023-04-03T21:26:44.726Z,7.30
2023-04-03T21:29:12.076Z,7.20
2023-04-03T21:31:54.229Z,7.20
2023-04-03T21:34:22.622Z,7.30
2023-04-03T21:36:52.883Z,7.20
2023-04-03T21:39:21.684Z,7.10
2023-04-03T21:41:52.548Z,7.00
2023-04-03T21:44:22.207Z,7.00
2023-04-03T21:46:54.598Z,6.90
2023-04-03T21:49:22.377Z,7.00
2023-04-03T21:51:51.326Z,6.90
2023-04-03T21:54:21.396Z,6.90
2023-04-03T21:56:49.430Z,6.80
2023-04-03T21:59:16.614Z,6.80
2023-04-03T22:01:44.704Z,6.80
2023-04-03T22:04:12.191Z,6.80
2023-04-03T22:06:39.382Z,6.80
2023-04-03T22:09:06.926Z,6.80
2023-04-03T22:11:34.241Z,6.80
2023-04-03T22:14:02.529Z,6.70
2023-04-03T22:16:29.744Z,6.50
2023-04-03T22:18:59.569Z,6.50
2023-04-03T22:21:27.764Z,6.60
2023-04-03T22:23:54.757Z,6.50
2023-04-03T22:26:21.801Z,6.50
2023-04-03T22:28:48.794Z,6.60
2023-04-03T22:31:16.965Z,6.60
2023-04-03T22:33:45.386Z,6.60
2023-04-03T22:36:13.513Z,6.40
2023-04-03T22:38:44.293Z,6.40
2023-04-03T22:41:12.100Z,6.10
2023-04-03T22:43:39.462Z,6.10
2023-04-03T22:46:10.977Z,6.10
2023-04-03T22:48:42.497Z,6.10
2023-04-03T22:51:09.476Z,6.10
2023-04-03T22:53:36.912Z,6.10
2023-04-03T22:56:08.426Z,6.00
2023-04-03T22:58:37.678Z,6.10
2023-04-03T23:01:12.323Z,6.10
2023-04-03T23:03:41.340Z,6.20
2023-04-03T23:06:09.793Z,6.00
2023-04-03T23:08:38.725Z,6.00
2023-04-03T23:11:07.355Z,6.00
2023-04-03T23:13:34.574Z,6.00
2023-04-03T23:16:03.205Z,6.00
2023-04-03T23:18:31.481Z,5.90
2023-04-03T23:21:03.758Z,5.90
2023-04-03T23:23:32.138Z,5.90
2023-04-03T23:26:01.323Z,5.90
2023-04-03T23:28:30.048Z,6.00
2023-04-03T23:31:06.585Z,5.90
2023-04-03T23:33:33.893Z,5.90
2023-04-03T23:36:07.957Z,5.90
2023-04-03T23:38:37.003Z,5.90
2023-04-03T23:41:04.984Z,5.90
2023-04-03T23:43:32.030Z,5.80
2023-04-03T23:46:02.394Z,5.70
2023-04-03T23:48:29.323Z,5.60
2023-04-03T23:50:56.291Z,5.60
2023-04-03T23:53:23.355Z,5.70
2023-04-03T23:55:51.592Z,5.50
2023-04-03T23:58:21.665Z,5.40
